Time;durP1;ratioP1;P1;durP2;ratioP2;P2;SDS_P1;SDS_P2;PMS_P1;PMS_P2;Temp;Humidity;BMP_temperature;BMP_pressure;BME280_temperature;BME280_humidity;BME280_pressure;Samples;Min_cycle;Max_cycle;Signal;HPM_P1;HPM_P2
2022/03/03 00:01:59;;;;;;;31.80;19.20;;;;;;;5.37;50.11;98774.25;5039214;28;20476;-65
2022/03/03 00:04:25;;;;;;;33.47;19.50;;;;;;;5.22;50.42;98733.25;5036841;28;20033;-64
2022/03/03 00:06:50;;;;;;;33.00;20.35;;;;;;;5.41;50.57;98748.28;5021776;28;20052;-64
2022/03/03 00:09:16;;;;;;;34.45;20.15;;;;;;;5.43;50.65;98770.44;5037740;28;20472;-64
2022/03/03 00:11:41;;;;;;;34.25;20.45;;;;;;;4.90;50.41;98677.06;5037610;28;20116;-64
2022/03/03 00:14:07;;;;;;;35.00;20.00;;;;;;;5.44;50.49;98766.09;5024941;28;20419;-64
2022/03/03 00:16:33;;;;;;;32.72;19.85;;;;;;;5.50;49.96;98771.66;5040261;28;20021;-63
2022/03/03 00:18:59;;;;;;;33.28;20.30;;;;;;;5.51;49.98;98759.56;5042199;28;20578;-64
2022/03/03 00:21:25;;;;;;;29.73;19.40;;;;;;;5.60;49.16;98753.75;5039844;28;20025;-64
2022/03/03 00:23:50;;;;;;;30.48;20.05;;;;;;;5.53;49.83;98753.38;5038542;28;20028;-64
2022/03/03 00:26:16;;;;;;;35.20;20.88;;;;;;;5.53;49.76;98745.66;5034274;28;20479;-64
2022/03/03 00:28:41;;;;;;;32.03;19.70;;;;;;;5.56;49.52;98755.72;5038176;28;20056;-64
2022/03/03 00:31:07;;;;;;;31.85;19.33;;;;;;;5.45;50.35;98752.28;5038556;28;20021;-64
2022/03/03 00:33:32;;;;;;;33.67;20.95;;;;;;;5.53;50.91;98757.69;5037496;28;20071;-63
2022/03/03 00:35:58;;;;;;;36.22;20.60;;;;;;;5.45;50.62;98754.84;5038263;28;20121;-64
2022/03/03 00:38:23;;;;;;;32.72;19.83;;;;;;;5.47;50.91;98756.38;5036788;28;21480;-64
2022/03/03 00:40:48;;;;;;;30.00;18.60;;;;;;;5.61;51.16;98745.09;5038545;28;20032;-64
2022/03/03 00:43:14;;;;;;;29.52;19.02;;;;;;;5.55;52.02;98746.34;5038758;28;20455;-64
2022/03/03 00:45:39;;;;;;;34.03;20.20;;;;;;;5.65;51.62;98750.84;5035898;28;20030;-64
2022/03/03 00:48:05;;;;;;;29.70;19.80;;;;;;;5.71;52.17;98750.41;5038401;28;20051;-64
2022/03/03 00:50:31;;;;;;;31.83;19.25;;;;;;;5.61;51.63;98732.19;5033308;28;20028;-64
2022/03/03 00:52:56;;;;;;;30.40;19.35;;;;;;;5.69;51.37;98754.84;5024088;28;20090;-64
2022/03/03 00:55:22;;;;;;;29.92;18.73;;;;;;;5.68;51.39;98722.25;5034569;28;20111;-64
2022/03/03 00:57:47;;;;;;;31.08;19.13;;;;;;;5.79;51.92;98740.38;5023438;28;20321;-64
2022/03/03 01:00:13;;;;;;;30.92;18.98;;;;;;;5.67;51.58;98738.66;5040866;28;20039;-64
2022/03/03 01:02:39;;;;;;;32.35;19.45;;;;;;;5.74;51.45;98743.25;5048018;28;20664;-65
2022/03/03 01:05:06;;;;;;;32.60;19.92;;;;;;;5.76;52.03;98748.31;5046401;28;20029;-64
2022/03/03 01:07:31;;;;;;;33.88;19.35;;;;;;;5.74;51.72;98740.69;5023930;28;20595;-64
2022/03/03 01:09:57;;;;;;;30.63;19.80;;;;;;;5.67;52.12;98734.31;5040121;28;20029;-64
2022/03/03 01:12:22;;;;;;;31.23;19.65;;;;;;;5.39;52.40;98684.72;5024987;28;20037;-64
2022/03/03 01:14:48;;;;;;;36.15;20.55;;;;;;;5.75;51.90;98737.19;5020846;28;20040;-65
2022/03/03 01:17:13;;;;;;;30.90;19.08;;;;;;;5.81;51.84;98737.69;5041736;28;20142;-65
2022/03/03 01:19:40;;;;;;;32.72;19.88;;;;;;;5.74;52.18;98739.88;5024704;28;20128;-64
2022/03/03 01:22:06;;;;;;;30.83;19.15;;;;;;;5.74;51.76;98738.09;5046466;28;20029;-64
2022/03/03 01:24:31;;;;;;;32.58;19.05;;;;;;;5.72;51.65;98726.25;5043945;28;20087;-64
2022/03/03 01:26:57;;;;;;;30.42;19.63;;;;;;;5.79;51.86;98735.19;5029289;28;20035;-64
2022/03/03 01:29:22;;;;;;;32.95;19.38;;;;;;;5.38;52.70;98667.63;5042256;28;20021;-64
2022/03/03 01:31:48;;;;;;;32.35;19.15;;;;;;;5.76;52.61;98736.22;5043483;28;20028;-64
2022/03/03 01:34:13;;;;;;;31.67;18.45;;;;;;;5.70;52.21;98722.97;5042008;28;20029;-65
2022/03/03 01:36:39;;;;;;;30.40;18.45;;;;;;;5.41;52.76;98674.31;5043577;28;20032;-64
2022/03/03 01:39:06;;;;;;;30.05;18.52;;;;;;;5.65;52.93;98715.53;5043106;28;20099;-63
2022/03/03 01:41:33;;;;;;;31.58;18.40;;;;;;;5.60;52.55;98712.47;5044192;28;20017;-64
2022/03/03 01:43:58;;;;;;;29.05;18.05;;;;;;;5.44;53.68;98714.50;5044636;28;20120;-64
2022/03/03 01:46:23;;;;;;;28.92;18.88;;;;;;;5.36;53.47;98700.41;5026301;28;20128;-64
2022/03/03 01:48:49;;;;;;;33.00;18.92;;;;;;;5.61;52.98;98715.91;5023640;28;20025;-64
2022/03/03 01:51:14;;;;;;;31.23;18.75;;;;;;;5.57;53.29;98710.94;5044505;28;20021;-64
2022/03/03 01:53:40;;;;;;;32.53;17.75;;;;;;;5.69;52.60;98698.91;5043828;28;20041;-65
2022/03/03 01:56:06;;;;;;;33.03;19.13;;;;;;;5.63;52.80;98696.78;5020638;28;20025;-64
2022/03/03 01:58:31;;;;;;;29.85;17.67;;;;;;;5.59;53.17;98682.47;5025049;28;20175;-64
2022/03/03 02:00:57;;;;;;;28.05;17.55;;;;;;;5.51;53.64;98688.19;5028479;28;20018;-64
2022/03/03 02:03:22;;;;;;;27.02;17.25;;;;;;;5.09;53.97;98627.63;5044590;28;20103;-64
2022/03/03 02:05:48;;;;;;;29.10;18.45;;;;;;;5.33;53.81;98681.75;5045791;28;20074;-65
2022/03/03 02:08:13;;;;;;;29.35;17.67;;;;;;;5.38;54.18;98692.56;5043966;28;20654;-64
2022/03/03 02:10:39;;;;;;;33.88;18.63;;;;;;;5.36;54.39;98674.63;5045312;28;20040;-65
2022/03/03 02:13:05;;;;;;;29.77;17.92;;;;;;;5.39;53.99;98682.13;5044080;28;20047;-65
2022/03/03 02:15:31;;;;;;;29.23;18.40;;;;;;;5.03;54.59;98636.59;5041476;28;20368;-64
2022/03/03 02:17:56;;;;;;;29.30;19.42;;;;;;;4.88;54.81;98623.06;5043864;28;20032;-64
2022/03/03 02:20:23;;;;;;;29.88;19.20;;;;;;;5.12;54.96;98666.06;5040685;28;20029;-65
2022/03/03 02:22:50;;;;;;;32.08;18.60;;;;;;;5.13;55.49;98667.69;5044606;28;20029;-64
2022/03/03 02:25:16;;;;;;;28.85;18.65;;;;;;;5.23;55.23;98671.28;5014003;28;20080;-65
2022/03/03 02:27:42;;;;;;;28.45;18.38;;;;;;;5.16;55.61;98670.06;5041433;28;20817;-64
2022/03/03 02:30:08;;;;;;;29.00;18.65;;;;;;;5.03;56.29;98652.06;5044247;28;20060;-64
2022/03/03 02:32:34;;;;;;;30.17;18.83;;;;;;;4.82;55.63;98641.53;5044501;28;20099;-64
2022/03/03 02:34:59;;;;;;;31.77;19.65;;;;;;;4.95;55.57;98680.97;5043743;28;20037;-64
2022/03/03 02:37:31;;;;;;;30.20;18.67;;;;;;;4.86;55.41;98667.91;5042658;28;20420;-64
2022/03/03 02:39:56;;;;;;;32.25;19.23;;;;;;;4.57;56.48;98606.34;5038887;28;20017;-66
2022/03/03 02:42:22;;;;;;;30.02;18.35;;;;;;;4.92;55.81;98664.91;5040160;28;20025;-63
2022/03/03 02:44:47;;;;;;;28.23;17.42;;;;;;;4.90;55.44;98667.56;5043077;28;20083;-63
2022/03/03 02:47:13;;;;;;;28.42;17.45;;;;;;;4.48;55.25;98618.13;5042019;28;20037;-64
2022/03/03 02:49:38;;;;;;;26.52;17.10;;;;;;;4.43;55.68;98612.44;5038043;28;20624;-63
2022/03/03 02:52:04;;;;;;;26.38;16.42;;;;;;;4.43;55.54;98589.28;5043042;28;20040;-64
2022/03/03 02:54:29;;;;;;;27.75;16.80;;;;;;;4.66;56.18;98652.06;5057037;28;20033;-64
2022/03/03 02:59:39;;;;;;;28.70;17.55;;;;;;;4.58;56.60;98654.34;5042594;28;20037;-64
2022/03/03 03:02:05;;;;;;;27.83;17.77;;;;;;;4.61;56.63;98651.56;5025829;28;20036;-64
2022/03/03 03:04:30;;;;;;;27.33;17.38;;;;;;;4.66;57.07;98657.22;5041287;28;20060;-63
2022/03/03 03:06:55;;;;;;;29.80;18.15;;;;;;;4.62;57.38;98653.22;5043120;28;20432;-63
2022/03/03 03:09:21;;;;;;;30.75;18.27;;;;;;;4.46;57.24;98656.03;5040643;28;20029;-64
2022/03/03 03:11:46;;;;;;;31.58;17.15;;;;;;;4.30;55.97;98634.81;5042187;28;20032;-63
2022/03/03 03:14:11;;;;;;;28.33;17.10;;;;;;;4.22;57.75;98630.19;5043013;28;20032;-64
2022/03/03 03:16:37;;;;;;;27.27;16.75;;;;;;;4.30;57.04;98633.06;5041220;28;20025;-64
2022/03/03 03:19:02;;;;;;;28.30;17.60;;;;;;;4.34;57.21;98626.78;5043008;28;20060;-63
2022/03/03 03:21:28;;;;;;;28.58;17.85;;;;;;;4.35;57.56;98625.84;5039451;28;20033;-63
2022/03/03 03:23:53;;;;;;;26.27;16.85;;;;;;;4.31;57.69;98634.72;5020441;28;20029;-63
2022/03/03 03:26:18;;;;;;;27.90;16.42;;;;;;;4.16;57.85;98636.59;5040831;28;20057;-64
2022/03/03 03:28:44;;;;;;;27.45;16.88;;;;;;;4.17;57.23;98638.22;5040853;28;20025;-64
2022/03/03 03:31:09;;;;;;;28.27;17.58;;;;;;;4.13;57.71;98620.53;5024322;28;20053;-64
2022/03/03 03:33:35;;;;;;;29.27;16.98;;;;;;;4.12;58.48;98631.75;5041499;28;20112;-64
2022/03/03 03:36:00;;;;;;;29.13;16.77;;;;;;;4.13;58.06;98634.22;5039140;28;20032;-64
2022/03/03 03:38:25;;;;;;;28.52;17.25;;;;;;;4.15;58.42;98631.53;5041526;28;20029;-64
2022/03/03 03:40:51;;;;;;;26.60;17.10;;;;;;;3.70;59.29;98564.22;5039081;28;20116;-63
2022/03/03 03:43:17;;;;;;;26.27;16.98;;;;;;;3.95;58.13;98620.00;5051413;28;20104;-64
2022/03/03 03:45:43;;;;;;;27.35;17.08;;;;;;;3.85;59.56;98620.63;5043321;28;20376;-63
2022/03/03 03:48:08;;;;;;;29.92;16.83;;;;;;;3.68;59.53;98577.19;5041282;28;20036;-63
2022/03/03 03:50:34;;;;;;;27.10;16.83;;;;;;;3.92;59.38;98625.34;5041664;28;20040;-63
2022/03/03 03:52:59;;;;;;;27.42;16.77;;;;;;;3.83;60.24;98617.34;5024220;28;20029;-63
2022/03/03 03:55:24;;;;;;;28.52;17.40;;;;;;;3.87;61.05;98619.69;5016790;28;20483;-63
2022/03/03 03:57:50;;;;;;;25.75;17.20;;;;;;;3.85;60.92;98606.91;5042979;28;20037;-63
2022/03/03 04:00:15;;;;;;;26.90;17.02;;;;;;;3.68;60.50;98582.34;5043865;28;20182;-63
2022/03/03 04:02:42;;;;;;;27.30;16.88;;;;;;;3.91;60.19;98619.41;5039952;28;20029;-63
2022/03/03 04:05:08;;;;;;;26.58;16.00;;;;;;;3.83;59.90;98604.47;5042352;28;20021;-65
2022/03/03 04:07:34;;;;;;;27.95;17.80;;;;;;;3.84;60.41;98605.28;5041739;28;20135;-63
2022/03/03 04:09:59;;;;;;;28.70;16.98;;;;;;;3.83;59.96;98609.63;5040040;28;20032;-64
2022/03/03 04:12:25;;;;;;;31.63;17.27;;;;;;;3.76;60.15;98607.53;5040566;28;20032;-63
2022/03/03 04:14:51;;;;;;;27.02;17.58;;;;;;;3.66;60.80;98597.84;5039252;28;20021;-64
2022/03/03 04:17:16;;;;;;;26.58;17.30;;;;;;;3.64;61.49;98596.31;5042282;28;20529;-63
2022/03/03 04:19:41;;;;;;;26.58;16.48;;;;;;;3.53;62.03;98581.59;5024227;28;20028;-63
2022/03/03 04:22:07;;;;;;;30.75;17.50;;;;;;;3.54;61.93;98598.69;5040450;28;20032;-64
2022/03/03 04:24:32;;;;;;;27.00;16.88;;;;;;;3.45;62.26;98597.53;5014539;28;20021;-64
2022/03/03 04:26:58;;;;;;;28.48;17.10;;;;;;;3.53;62.26;98599.59;5040238;28;20801;-64
2022/03/03 04:29:23;;;;;;;26.70;15.38;;;;;;;3.40;62.26;98580.78;5041288;28;20119;-65
2022/03/03 04:31:51;;;;;;;26.27;17.20;;;;;;;3.62;63.25;98593.03;5019107;28;20083;-64
2022/03/03 04:34:17;;;;;;;27.70;16.50;;;;;;;3.65;63.50;98585.94;5039399;28;20112;-63
2022/03/03 04:36:42;;;;;;;27.80;16.50;;;;;;;3.35;62.84;98526.25;5039492;28;20025;-65
2022/03/03 04:39:07;;;;;;;27.00;16.73;;;;;;;3.64;63.85;98578.31;5039027;28;20079;-64
2022/03/03 04:41:33;;;;;;;26.35;15.90;;;;;;;3.59;63.65;98562.38;5037462;28;20029;-64
2022/03/03 04:43:58;;;;;;;26.38;16.35;;;;;;;3.31;62.57;98507.66;5041572;28;20096;-64
2022/03/03 04:46:23;;;;;;;28.85;16.80;;;;;;;3.43;62.61;98535.13;5023280;28;20034;-64
2022/03/03 04:48:49;;;;;;;30.27;17.35;;;;;;;3.19;63.57;98527.25;5041139;28;20352;-65
2022/03/03 04:51:14;;;;;;;30.05;17.83;;;;;;;3.24;62.14;98558.63;5039190;28;20024;-64
2022/03/03 04:53:41;;;;;;;27.73;16.73;;;;;;;3.11;63.34;98583.47;5039612;28;20032;-64
2022/03/03 04:56:06;;;;;;;26.70;16.35;;;;;;;3.11;63.24;98586.03;5024281;28;20035;-64
2022/03/03 04:58:32;;;;;;;28.25;16.65;;;;;;;2.95;64.13;98557.94;5039313;28;20486;-64
2022/03/03 05:00:57;;;;;;;27.17;16.52;;;;;;;3.26;63.80;98579.09;5041520;28;20028;-64
2022/03/03 05:03:22;;;;;;;26.70;16.27;;;;;;;3.34;64.51;98566.56;5039572;28;20482;-64
2022/03/03 05:05:48;;;;;;;26.08;17.02;;;;;;;3.06;64.05;98519.53;5041795;28;20114;-63
2022/03/03 05:08:13;;;;;;;25.38;16.80;;;;;;;3.50;63.82;98562.97;5039697;28;20075;-64
2022/03/03 05:10:39;;;;;;;28.10;17.52;;;;;;;3.50;63.83;98562.97;5042028;28;20088;-64
2022/03/03 05:13:04;;;;;;;29.10;16.90;;;;;;;3.54;64.01;98572.97;5039440;28;20029;-64
2022/03/03 05:15:29;;;;;;;29.55;17.20;;;;;;;3.63;63.07;98574.09;5036586;28;20036;-64
2022/03/03 05:17:55;;;;;;;31.10;17.17;;;;;;;3.56;63.80;98562.56;5040716;28;20032;-64
2022/03/03 05:20:21;;;;;;;28.95;17.08;;;;;;;3.45;63.77;98571.00;5039450;28;20025;-64
2022/03/03 05:22:46;;;;;;;27.02;16.60;;;;;;;3.55;64.53;98560.94;5021891;28;20380;-64
2022/03/03 05:25:12;;;;;;;27.30;17.10;;;;;;;3.54;64.49;98554.97;5039400;28;20378;-64
2022/03/03 05:27:39;;;;;;;26.00;16.45;;;;;;;3.54;65.17;98547.28;5040128;28;20060;-64
2022/03/03 05:30:06;;;;;;;29.25;17.85;;;;;;;3.58;64.79;98542.75;5040519;28;20120;-64
2022/03/03 05:32:31;;;;;;;26.27;17.08;;;;;;;3.60;65.06;98556.31;5038912;28;20024;-64
2022/03/03 05:34:57;;;;;;;25.02;16.38;;;;;;;3.59;64.79;98545.19;5039795;28;20029;-64
2022/03/03 05:37:24;;;;;;;29.05;17.33;;;;;;;3.51;64.86;98531.22;5037879;28;20071;-64
2022/03/03 05:39:51;;;;;;;26.02;17.25;;;;;;;2.92;65.11;98442.56;5039273;28;20443;-63
2022/03/03 05:42:19;;;;;;;27.98;17.95;;;;;;;3.59;65.54;98546.94;5038204;28;20095;-64
2022/03/03 05:44:46;;;;;;;29.95;18.08;;;;;;;3.61;65.02;98547.66;5044079;28;20120;-64
2022/03/03 05:47:12;;;;;;;26.55;17.27;;;;;;;3.55;65.18;98556.59;5040843;28;20043;-64
2022/03/03 05:49:38;;;;;;;26.90;17.35;;;;;;;3.44;64.83;98554.75;5044643;28;20037;-65
2022/03/03 05:52:04;;;;;;;27.92;17.85;;;;;;;3.40;64.24;98539.63;5042048;28;20036;-64
2022/03/03 05:54:29;;;;;;;28.48;17.92;;;;;;;3.42;64.30;98553.22;5039877;28;20041;-64
2022/03/03 05:56:55;;;;;;;30.23;19.27;;;;;;;2.87;64.03;98452.31;5039912;28;20033;-64
2022/03/03 05:59:22;;;;;;;30.63;18.95;;;;;;;3.41;63.49;98551.56;5039735;28;20455;-64
2022/03/03 06:01:49;;;;;;;27.20;18.02;;;;;;;3.39;64.13;98559.34;5040056;28;21029;-64
2022/03/03 06:04:15;;;;;;;31.02;18.83;;;;;;;3.30;63.80;98556.56;5042442;28;20080;-64
2022/03/03 06:06:45;;;;;;;31.10;18.80;;;;;;;3.35;64.28;98554.53;5024521;28;20029;-64
2022/03/03 06:09:15;;;;;;;28.20;18.95;;;;;;;3.35;63.40;98551.97;5020923;28;20343;-64
2022/03/03 06:12:02;;;;;;;29.63;18.60;;;;;;;3.42;64.06;98555.78;5022862;28;20033;-63
2022/03/03 06:14:54;;;;;;;32.80;18.35;;;;;;;3.51;63.96;98570.59;5030606;28;20487;-64
2022/03/03 06:17:25;;;;;;;29.98;18.23;;;;;;;3.41;63.44;98570.38;5032873;28;20034;-64
2022/03/03 06:19:52;;;;;;;33.08;19.27;;;;;;;3.29;63.38;98565.22;5040987;28;20484;-64
2022/03/03 06:22:18;;;;;;;28.45;18.10;;;;;;;3.41;63.34;98580.69;5024086;28;20402;-64
2022/03/03 06:24:44;;;;;;;30.42;18.15;;;;;;;3.04;63.22;98512.84;4998978;28;20047;-64
2022/03/03 06:27:09;;;;;;;29.73;18.38;;;;;;;3.39;64.24;98579.09;5038576;28;20025;-64
2022/03/03 06:29:36;;;;;;;29.88;18.05;;;;;;;3.42;63.63;98571.19;5039795;28;21949;-64
2022/03/03 06:32:02;;;;;;;27.52;18.15;;;;;;;3.44;63.19;98579.63;5031095;28;20017;-64
2022/03/03 06:34:28;;;;;;;32.40;18.70;;;;;;;3.01;64.46;98526.72;5042566;28;20037;-64
2022/03/03 06:36:54;;;;;;;33.05;18.17;;;;;;;3.30;64.28;98577.13;5018684;28;20110;-64
2022/03/03 06:39:19;;;;;;;31.90;18.70;;;;;;;3.34;64.43;98591.44;4981791;28;20024;-64
2022/03/03 06:41:45;;;;;;;31.65;18.77;;;;;;;3.32;64.73;98583.00;5042361;28;20055;-64
2022/03/03 06:44:11;;;;;;;33.80;18.77;;;;;;;3.40;64.44;98594.44;5037389;28;20027;-64
2022/03/03 06:46:37;;;;;;;32.78;18.65;;;;;;;3.13;64.08;98566.19;5014110;28;20034;-63
2022/03/03 06:49:03;;;;;;;36.33;19.75;;;;;;;3.38;63.67;98598.84;5039714;28;20060;-63
2022/03/03 06:51:37;;;;;;;31.35;17.90;;;;;;;3.30;64.01;98590.00;5039060;28;20061;-63
2022/03/03 06:54:04;;;;;;;30.23;18.58;;;;;;;3.25;63.99;98587.72;5038319;28;20769;-64
2022/03/03 06:56:34;;;;;;;39.53;18.58;;;;;;;3.38;64.20;98587.75;5036027;28;20040;-63
2022/03/03 06:59:01;;;;;;;38.97;17.95;;;;;;;3.35;63.77;98593.09;5048672;28;20034;-63
2022/03/03 07:01:28;;;;;;;30.33;19.80;;;;;;;3.14;64.12;98577.28;5036574;28;20052;-64
2022/03/03 07:03:55;;;;;;;31.38;19.70;;;;;;;3.19;64.03;98582.97;5042568;28;20029;-63
2022/03/03 07:06:21;;;;;;;33.40;19.55;;;;;;;3.24;63.58;98588.63;5039618;28;20021;-63
2022/03/03 07:08:46;;;;;;;36.53;20.08;;;;;;;3.21;63.47;98589.66;5041021;28;20039;-63
2022/03/03 07:11:13;;;;;;;32.95;19.35;;;;;;;3.15;64.07;98584.09;5040226;28;20430;-63
2022/03/03 07:13:38;;;;;;;35.55;20.00;;;;;;;3.14;64.83;98588.41;5038958;28;20564;-63
2022/03/03 07:16:23;;;;;;;33.60;19.80;;;;;;;3.10;64.12;98594.66;5037049;28;20044;-63
2022/03/03 07:18:53;;;;;;;34.17;19.63;;;;;;;3.07;65.09;98594.88;5035653;28;20577;-63
2022/03/03 07:21:29;;;;;;;40.90;21.08;;;;;;;3.11;64.97;98593.75;5038616;28;20028;-63
2022/03/03 07:24:12;;;;;;;37.45;20.52;;;;;;;3.14;64.62;98593.56;5040015;28;20032;-63
2022/03/03 07:26:39;;;;;;;39.40;20.20;;;;;;;3.16;64.42;98586.56;5039284;28;20021;-64
2022/03/03 07:29:07;;;;;;;31.67;19.27;;;;;;;3.22;64.05;98585.34;5041347;28;20387;-65
2022/03/03 07:31:41;;;;;;;32.03;18.77;;;;;;;3.23;64.24;98590.41;5039885;28;20424;-64
2022/03/03 07:34:07;;;;;;;36.75;20.33;;;;;;;3.27;63.90;98588.44;5034029;28;20434;-63
2022/03/03 07:36:39;;;;;;;38.70;20.92;;;;;;;3.21;65.26;98578.56;5024119;28;20029;-63
2022/03/03 07:39:07;;;;;;;44.95;20.63;;;;;;;3.09;65.05;98567.34;5030147;28;20522;-63
2022/03/03 07:41:32;;;;;;;39.72;20.88;;;;;;;3.14;64.78;98575.56;5041497;28;20036;-63
2022/03/03 07:43:59;;;;;;;39.65;21.10;;;;;;;3.15;64.84;98587.47;5054019;28;20379;-64
2022/03/03 07:46:25;;;;;;;39.08;22.13;;;;;;;3.25;64.93;98580.03;5037953;28;20035;-64
2022/03/03 07:48:53;;;;;;;40.70;22.08;;;;;;;3.24;64.40;98575.78;5038573;28;20028;-64
2022/03/03 07:51:19;;;;;;;43.13;22.15;;;;;;;3.19;64.82;98588.09;5039069;28;20476;-63
2022/03/03 07:53:44;;;;;;;49.03;21.95;;;;;;;3.23;64.41;98574.97;5041843;28;20029;-64
2022/03/03 07:56:12;;;;;;;32.92;21.35;;;;;;;3.00;65.16;98579.00;5039577;28;20028;-64
2022/03/03 07:58:45;;;;;;;39.08;21.35;;;;;;;2.81;65.62;98551.13;5041012;28;20032;-65
2022/03/03 08:01:17;;;;;;;35.55;20.83;;;;;;;3.14;66.67;98592.72;5054743;28;20376;-64
2022/03/03 08:03:44;;;;;;;31.65;19.67;;;;;;;3.19;67.39;98591.50;5041634;28;20084;-65
2022/03/03 08:06:11;;;;;;;32.60;19.80;;;;;;;3.25;66.50;98580.84;5040249;28;20029;-63
2022/03/03 08:08:37;;;;;;;37.72;21.40;;;;;;;3.32;66.51;98588.94;5038901;28;20052;-64
2022/03/03 08:11:04;;;;;;;34.08;20.70;;;;;;;3.29;67.38;98593.50;5040083;28;20053;-64
2022/03/03 08:13:31;;;;;;;34.10;20.52;;;;;;;3.24;66.46;98584.31;5037975;28;20673;-64
2022/03/03 08:15:57;;;;;;;36.70;20.83;;;;;;;3.34;66.44;98610.25;5040983;28;20098;-64
2022/03/03 08:18:38;;;;;;;37.10;21.40;;;;;;;3.26;66.13;98590.19;5037541;28;20028;-64
2022/03/03 08:21:06;;;;;;;42.85;22.00;;;;;;;3.40;66.17;98602.16;5041269;28;20040;-64
2022/03/03 08:23:33;;;;;;;40.47;21.98;;;;;;;3.45;65.93;98597.53;5022389;28;20025;-64
2022/03/03 08:26:00;;;;;;;36.22;21.52;;;;;;;3.39;66.29;98576.53;5039139;28;20044;-64
2022/03/03 08:28:25;;;;;;;37.90;21.83;;;;;;;3.47;65.94;98582.84;5042358;28;20033;-64
2022/03/03 08:31:04;;;;;;;43.17;21.17;;;;;;;3.36;65.87;98582.72;5041695;28;20032;-64
2022/03/03 08:33:51;;;;;;;42.40;21.88;;;;;;;3.44;66.20;98597.63;5040562;28;20064;-64
2022/03/03 08:36:30;;;;;;;38.10;22.00;;;;;;;3.43;66.63;98591.69;5035098;28;20021;-64
2022/03/03 08:39:04;;;;;;;36.22;21.08;;;;;;;3.53;66.04;98593.66;5039609;28;20024;-64
2022/03/03 08:41:32;;;;;;;34.17;20.95;;;;;;;3.23;65.95;98539.00;5041226;28;20360;-64
2022/03/03 08:43:59;;;;;;;37.47;20.33;;;;;;;3.41;66.21;98566.97;5039683;28;20021;-64
2022/03/03 08:46:25;;;;;;;32.90;20.83;;;;;;;3.47;67.51;98595.69;5041538;28;20033;-64
2022/03/03 08:48:52;;;;;;;32.17;20.88;;;;;;;3.49;67.93;98611.00;5039012;28;20203;-63
2022/03/03 08:51:19;;;;;;;33.20;20.73;;;;;;;3.40;66.52;98594.44;5040535;28;20057;-63
2022/03/03 08:53:46;;;;;;;31.95;20.63;;;;;;;3.42;67.15;98589.19;5020257;28;20042;-63
2022/03/03 08:56:11;;;;;;;33.42;20.40;;;;;;;3.14;67.87;98528.47;5038488;28;20021;-63
2022/03/03 08:58:37;;;;;;;32.03;20.15;;;;;;;3.58;68.19;98589.84;5042518;28;20772;-63
2022/03/03 09:01:02;;;;;;;35.47;21.08;;;;;;;3.61;68.18;98576.78;5037578;28;20499;-63
2022/03/03 09:03:28;;;;;;;37.30;20.38;;;;;;;3.72;67.49;98586.34;5050016;28;20163;-63
2022/03/03 09:05:54;;;;;;;32.80;21.35;;;;;;;3.60;68.97;98572.56;5021278;28;20013;-63
2022/03/03 09:08:20;;;;;;;31.83;19.23;;;;;;;3.52;67.99;98579.94;5040950;28;20103;-64
2022/03/03 09:10:45;;;;;;;32.78;19.88;;;;;;;3.69;66.52;98591.72;5038340;28;20021;-63
2022/03/03 09:13:11;;;;;;;34.55;20.20;;;;;;;3.55;66.13;98571.22;5039441;28;20025;-64
2022/03/03 09:15:36;;;;;;;33.45;20.02;;;;;;;3.69;66.68;98580.56;5037953;28;20025;-63
2022/03/03 09:18:02;;;;;;;28.83;19.10;;;;;;;3.77;68.09;98581.72;4956031;28;20025;-63
2022/03/03 09:20:28;;;;;;;35.38;19.58;;;;;;;3.78;69.35;98575.66;5023575;28;20033;-64
2022/03/03 09:22:54;;;;;;;32.28;19.60;;;;;;;3.81;68.40;98567.72;5043475;28;20552;-62
2022/03/03 09:25:20;;;;;;;33.35;20.85;;;;;;;3.83;69.22;98570.19;5025436;28;20032;-64
2022/03/03 09:27:45;;;;;;;31.77;19.42;;;;;;;3.64;69.21;98520.00;5039098;28;20124;-64
2022/03/03 09:30:11;;;;;;;32.10;20.13;;;;;;;3.98;68.67;98574.31;5045385;28;20064;-63
2022/03/03 09:32:38;;;;;;;31.23;19.35;;;;;;;3.68;67.37;98525.75;5040509;28;20036;-64
2022/03/03 09:35:04;;;;;;;28.73;18.88;;;;;;;3.69;65.44;98517.13;5043995;28;20472;-63
2022/03/03 09:37:30;;;;;;;33.53;18.77;;;;;;;3.88;66.14;98549.31;5040062;28;20043;-64
2022/03/03 09:39:55;;;;;;;30.92;18.52;;;;;;;3.97;65.57;98554.66;5041208;28;20025;-63
2022/03/03 09:42:21;;;;;;;27.88;17.73;;;;;;;4.00;64.08;98553.63;5042841;28;20027;-63
2022/03/03 09:44:47;;;;;;;30.67;18.98;;;;;;;3.90;61.86;98538.00;5042059;28;20067;-63
2022/03/03 09:47:12;;;;;;;29.25;16.38;;;;;;;4.12;59.32;98542.47;5040018;28;20033;-63
2022/03/03 09:49:39;;;;;;;28.42;16.17;;;;;;;4.32;57.39;98533.38;5040764;28;20472;-63
2022/03/03 09:52:14;;;;;;;27.85;15.75;;;;;;;4.28;54.66;98502.84;5024095;28;20078;-63
2022/03/03 09:54:41;;;;;;;24.42;15.07;;;;;;;4.77;51.81;98531.06;5042018;28;20032;-63
2022/03/03 09:57:07;;;;;;;28.65;15.18;;;;;;;4.92;51.64;98528.31;5044202;28;20051;-63
2022/03/03 09:59:32;;;;;;;24.75;15.00;;;;;;;5.06;50.04;98530.72;5027090;28;20063;-64
2022/03/03 10:02:02;;;;;;;25.98;15.80;;;;;;;5.17;49.64;98519.63;5043254;28;20052;-63
2022/03/03 10:04:28;;;;;;;25.33;15.02;;;;;;;5.07;48.78;98473.06;5042551;28;20048;-63
2022/03/03 10:06:53;;;;;;;25.65;15.05;;;;;;;5.59;49.87;98513.03;5027388;28;20834;-63
2022/03/03 10:09:19;;;;;;;26.27;15.38;;;;;;;5.82;49.05;98512.22;5026701;28;20037;-63
2022/03/03 10:11:47;;;;;;;27.58;17.10;;;;;;;6.06;49.35;98512.13;5045498;28;20033;-64
2022/03/03 10:14:13;;;;;;;24.45;15.32;;;;;;;6.19;49.45;98507.69;5043266;28;21410;-64
2022/03/03 10:16:46;;;;;;;27.45;15.90;;;;;;;6.23;51.20;98493.59;5024229;28;21807;-64
2022/03/03 10:19:11;;;;;;;25.88;15.57;;;;;;;6.26;52.91;98500.25;5057056;28;20060;-63
2022/03/03 10:21:38;;;;;;;27.63;15.35;;;;;;;6.30;53.21;98501.69;5044160;28;20045;-63
2022/03/03 10:24:24;;;;;;;28.02;16.25;;;;;;;6.15;51.95;98446.88;5041681;28;20028;-64
2022/03/03 10:27:01;;;;;;;24.30;14.60;;;;;;;6.68;53.97;98487.47;5042527;28;20056;-64
2022/03/03 10:29:27;;;;;;;24.00;14.32;;;;;;;6.65;54.22;98439.47;5024611;28;20459;-64
2022/03/03 10:31:54;;;;;;;23.50;14.38;;;;;;;6.84;53.94;98414.69;5044911;28;20032;-63
2022/03/03 10:34:20;;;;;;;25.27;15.13;;;;;;;7.31;53.29;98452.13;5046675;28;20231;-63
2022/03/03 10:37:03;;;;;;;22.20;13.77;;;;;;;7.60;53.11;98479.94;5043832;28;20021;-64
2022/03/03 10:39:55;;;;;;;24.05;14.18;;;;;;;7.42;52.17;98430.53;5044185;28;20025;-63
2022/03/03 10:42:22;;;;;;;28.38;15.05;;;;;;;7.77;51.63;98462.97;5044468;28;20028;-64
2022/03/03 10:44:49;;;;;;;29.40;14.80;;;;;;;7.89;51.06;98463.72;5041779;28;20025;-64
2022/03/03 10:47:19;;;;;;;22.80;14.77;;;;;;;7.95;50.47;98463.19;5058213;28;20074;-64
2022/03/03 10:49:47;;;;;;;22.42;14.13;;;;;;;8.02;48.58;98463.47;5028372;28;20025;-64
2022/03/03 10:52:17;;;;;;;25.73;14.75;;;;;;;7.90;47.16;98413.56;5044074;28;20058;-63
2022/03/03 10:54:55;;;;;;;23.02;14.10;;;;;;;7.90;48.87;98408.38;5048524;28;20032;-63
2022/03/03 10:57:44;;;;;;;23.92;15.35;;;;;;;8.21;49.31;98455.75;5042900;28;20029;-63
2022/03/03 11:00:23;;;;;;;22.83;14.45;;;;;;;8.19;49.78;98455.06;5044677;28;20032;-63
2022/03/03 11:02:51;;;;;;;26.48;16.15;;;;;;;8.22;48.15;98448.81;5042622;28;20249;-63
2022/03/03 11:05:17;;;;;;;23.83;15.50;;;;;;;8.07;48.44;98397.38;5042034;28;20083;-63
2022/03/03 11:07:45;;;;;;;21.45;14.23;;;;;;;8.33;48.67;98434.91;5046400;28;20029;-63
2022/03/03 11:10:13;;;;;;;21.80;14.68;;;;;;;8.34;49.07;98421.84;5038580;28;20052;-63
2022/03/03 11:12:40;;;;;;;23.67;15.15;;;;;;;8.45;49.23;98433.84;5043736;28;20029;-64
2022/03/03 11:15:06;;;;;;;20.77;14.00;;;;;;;8.59;48.88;98435.22;5039695;28;20033;-64
2022/03/03 11:17:32;;;;;;;22.23;14.52;;;;;;;8.36;47.85;98388.84;5046819;28;20525;-63
2022/03/03 11:19:59;;;;;;;22.60;14.23;;;;;;;8.40;47.32;98389.38;5024408;28;20103;-63
2022/03/03 11:22:25;;;;;;;21.92;14.95;;;;;;;8.71;46.65;98423.78;5025992;28;20089;-63
2022/03/03 11:24:51;;;;;;;23.15;15.13;;;;;;;8.77;47.85;98423.22;5041489;28;20013;-63
2022/03/03 11:27:17;;;;;;;23.40;15.18;;;;;;;8.80;46.78;98412.56;5024501;28;20066;-64